Time;durP1;ratioP1;P1;durP2;ratioP2;P2;SDS_P1;SDS_P2;PMS_P1;PMS_P2;Temp;Humidity;BMP_temperature;BMP_pressure;BME280_temperature;BME280_humidity;BME280_pressure;Samples;Min_cycle;Max_cycle;Signal;HPM_P1;HPM_P2
2023/05/25 00:01:18;;;;;;;0.10;0.10;;;14.00;99.90;;;;;;5134322;27;20023;-69
2023/05/25 00:03:44;;;;;;;4.53;1.10;;;13.90;99.90;;;;;;5134401;27;20019;-69
2023/05/25 00:06:10;;;;;;;0.17;0.17;;;13.80;99.90;;;;;;5134423;27;20378;-68
2023/05/25 00:08:39;;;;;;;0.10;0.10;;;13.70;99.90;;;;;;5134318;27;20031;-69
2023/05/25 00:11:05;;;;;;;0.00;0.00;;;13.70;99.90;;;;;;5128272;27;20114;-68
2023/05/25 00:13:30;;;;;;;0.10;0.10;;;13.60;99.90;;;;;;5094455;28;20131;-69
2023/05/25 00:15:56;;;;;;;0.10;0.10;;;13.70;99.90;;;;;;5113355;28;20051;-69
2023/05/25 00:18:23;;;;;;;0.00;0.00;;;13.90;99.90;;;;;;5095506;28;20039;-69
2023/05/25 00:20:52;;;;;;;0.25;0.25;;;13.90;99.90;;;;;;5113676;28;20034;-68
2023/05/25 00:23:19;;;;;;;0.00;0.00;;;13.80;99.90;;;;;;5113589;28;20376;-68
2023/05/25 00:25:45;;;;;;;0.10;0.10;;;13.70;99.90;;;;;;5113869;28;20406;-69
2023/05/25 00:28:11;;;;;;;0.00;0.00;;;13.70;99.90;;;;;;5095138;28;20038;-68
2023/05/25 00:30:36;;;;;;;0.22;0.22;;;13.60;99.90;;;;;;5113072;28;20368;-68
2023/05/25 00:33:03;;;;;;;0.10;0.10;;;13.50;99.90;;;;;;5113271;28;20043;-68
2023/05/25 00:35:29;;;;;;;1.40;1.30;;;13.50;99.90;;;;;;5113365;28;20015;-68
2023/05/25 00:37:55;;;;;;;7.22;1.75;;;13.40;99.90;;;;;;5113411;28;20072;-68
2023/05/25 00:40:21;;;;;;;0.10;0.10;;;13.40;99.90;;;;;;5094771;28;20034;-68
2023/05/25 00:42:47;;;;;;;0.70;0.63;;;13.40;99.90;;;;;;5095227;28;20040;-69
2023/05/25 00:45:13;;;;;;;0.10;0.10;;;13.50;99.90;;;;;;5094629;28;20026;-68
2023/05/25 00:47:40;;;;;;;0.35;0.35;;;13.50;99.90;;;;;;5095171;28;20114;-68
2023/05/25 00:50:09;;;;;;;0.17;0.17;;;13.40;99.90;;;;;;5078481;28;20395;-69
2023/05/25 00:52:35;;;;;;;1.65;0.80;;;13.40;99.90;;;;;;5113054;28;20061;-74
2023/05/25 00:55:02;;;;;;;4.95;1.00;;;13.20;99.90;;;;;;5113252;28;20047;-69
2023/05/25 00:57:32;;;;;;;0.20;0.20;;;13.10;99.90;;;;;;5113083;28;20486;-69
2023/05/25 00:59:59;;;;;;;0.00;0.00;;;13.10;99.90;;;;;;5113042;28;20065;-68
2023/05/25 01:02:28;;;;;;;2.50;1.05;;;13.10;99.90;;;;;;5095033;28;20103;-68
2023/05/25 01:04:58;;;;;;;3.20;1.45;;;13.10;99.90;;;;;;5112961;28;20488;-68
2023/05/25 01:07:26;;;;;;;1.55;0.98;;;13.10;99.90;;;;;;5095016;28;20114;-70
2023/05/25 01:10:01;;;;;;;12.05;0.73;;;13.00;99.90;;;;;;5094619;28;20273;-70
2023/05/25 01:12:28;;;;;;;0.10;0.10;;;13.00;99.90;;;;;;5113088;28;20083;-70
2023/05/25 01:14:55;;;;;;;0.00;0.00;;;13.10;99.90;;;;;;5112635;28;20024;-70
2023/05/25 01:17:25;;;;;;;0.10;0.10;;;13.10;99.90;;;;;;5113265;28;20319;-68
2023/05/25 01:19:51;;;;;;;0.47;0.47;;;13.00;99.90;;;;;;5112676;28;20053;-67
2023/05/25 01:22:50;;;;;;;0.15;0.15;;;13.10;99.90;;;;;;5112902;28;20019;-67
2023/05/25 01:25:36;;;;;;;0.40;0.40;;;13.00;99.90;;;;;;5094608;28;20035;-68
2023/05/25 01:28:10;;;;;;;0.15;0.15;;;13.10;99.90;;;;;;5094332;28;20023;-68
2023/05/25 01:30:40;;;;;;;0.93;0.57;;;13.10;99.90;;;;;;5094595;28;20576;-68
2023/05/25 01:33:08;;;;;;;0.75;0.75;;;13.00;99.90;;;;;;5112819;28;20134;-67
2023/05/25 01:35:35;;;;;;;0.90;0.90;;;13.20;99.90;;;;;;5112710;28;20065;-68
2023/05/25 01:38:01;;;;;;;0.20;0.20;;;12.90;99.90;;;;;;5112998;28;20051;-68
2023/05/25 01:40:27;;;;;;;1.55;1.45;;;13.10;99.90;;;;;;5113052;28;20058;-69
2023/05/25 01:42:53;;;;;;;0.15;0.13;;;12.90;99.90;;;;;;5112624;28;20086;-68
2023/05/25 01:45:19;;;;;;;0.52;0.15;;;12.90;99.90;;;;;;5098368;28;20012;-68
2023/05/25 01:47:58;;;;;;;0.38;0.38;;;12.90;99.90;;;;;;5098315;28;20031;-72
2023/05/25 01:50:37;;;;;;;0.10;0.10;;;13.00;99.90;;;;;;5116931;28;20406;-68
2023/05/25 01:53:08;;;;;;;0.80;0.75;;;13.00;99.90;;;;;;5098327;28;20032;-68
2023/05/25 01:55:40;;;;;;;0.10;0.10;;;13.00;99.90;;;;;;5098171;28;20020;-68
2023/05/25 01:58:07;;;;;;;0.35;0.32;;;13.20;99.90;;;;;;5097822;28;20032;-68
2023/05/25 02:00:34;;;;;;;0.10;0.10;;;13.20;99.90;;;;;;5097978;28;20016;-68
2023/05/25 02:03:01;;;;;;;0.10;0.10;;;12.90;99.90;;;;;;5098106;28;20123;-68
2023/05/25 02:05:27;;;;;;;0.20;0.20;;;12.90;99.90;;;;;;5116310;28;20023;-69
2023/05/25 02:07:53;;;;;;;0.10;0.10;;;12.90;99.90;;;;;;5116359;28;20420;-70
2023/05/25 02:10:19;;;;;;;0.22;0.22;;;12.80;99.90;;;;;;5116069;28;20423;-68
2023/05/25 02:12:45;;;;;;;0.08;0.08;;;12.80;99.90;;;;;;5115606;28;20039;-70
2023/05/25 02:15:11;;;;;;;0.10;0.10;;;12.80;99.90;;;;;;5116348;28;20165;-70
2023/05/25 02:17:37;;;;;;;0.15;0.15;;;12.80;99.90;;;;;;5097633;28;20023;-70
2023/05/25 02:20:05;;;;;;;0.10;0.10;;;12.80;99.90;;;;;;5097713;28;20375;-70
2023/05/25 02:22:31;;;;;;;5.10;0.63;;;12.80;99.90;;;;;;5116230;28;20028;-70
2023/05/25 02:24:57;;;;;;;0.10;0.10;;;12.80;99.90;;;;;;5097505;28;20031;-70
2023/05/25 02:27:23;;;;;;;0.10;0.10;;;12.90;99.90;;;;;;5115619;28;20049;-70
2023/05/25 02:29:49;;;;;;;0.10;0.10;;;12.90;99.90;;;;;;5115859;28;20028;-70
2023/05/25 02:32:15;;;;;;;0.05;0.05;;;12.90;99.90;;;;;;5097471;28;20053;-69
2023/05/25 02:34:41;;;;;;;0.40;0.40;;;12.90;99.90;;;;;;5115616;28;20031;-75
2023/05/25 02:37:07;;;;;;;0.10;0.10;;;12.80;99.90;;;;;;5097235;28;20023;-71
2023/05/25 02:39:32;;;;;;;0.00;0.00;;;12.80;99.90;;;;;;5097664;28;20027;-68
2023/05/25 02:42:00;;;;;;;0.10;0.10;;;12.80;99.90;;;;;;5096717;28;20016;-70
2023/05/25 02:44:27;;;;;;;0.17;0.17;;;12.90;99.90;;;;;;5097645;28;20047;-70
2023/05/25 02:46:53;;;;;;;0.10;0.10;;;12.80;99.90;;;;;;5097008;28;20047;-70
2023/05/25 02:49:19;;;;;;;0.10;0.10;;;12.80;99.90;;;;;;5115612;28;20483;-71
2023/05/25 02:51:46;;;;;;;2.25;1.08;;;12.70;99.90;;;;;;5096698;28;20453;-69
2023/05/25 02:54:12;;;;;;;0.05;0.05;;;12.50;99.90;;;;;;5114800;28;20035;-70
2023/05/25 02:56:38;;;;;;;0.25;0.25;;;12.40;99.90;;;;;;5096785;28;20023;-70
2023/05/25 02:59:04;;;;;;;0.10;0.10;;;12.50;99.90;;;;;;5096852;28;20065;-69
2023/05/25 03:01:33;;;;;;;0.88;0.75;;;12.60;99.90;;;;;;5115146;28;20037;-69
2023/05/25 03:03:59;;;;;;;0.20;0.20;;;12.60;99.90;;;;;;5096718;28;20023;-70
2023/05/25 03:06:26;;;;;;;0.10;0.10;;;12.60;99.90;;;;;;5096833;28;20172;-70
2023/05/25 03:09:05;;;;;;;0.20;0.20;;;12.50;99.90;;;;;;5096485;28;20049;-70
2023/05/25 03:11:32;;;;;;;0.20;0.20;;;12.40;99.90;;;;;;5096844;28;20032;-70
2023/05/25 03:13:59;;;;;;;0.10;0.10;;;12.30;99.90;;;;;;5096593;28;20100;-69
2023/05/25 03:16:27;;;;;;;0.17;0.17;;;12.30;99.90;;;;;;5096639;28;20016;-69
2023/05/25 03:18:53;;;;;;;0.10;0.10;;;12.20;99.90;;;;;;5096507;28;20023;-74
2023/05/25 03:21:21;;;;;;;0.10;0.10;;;12.20;99.90;;;;;;5096471;28;20387;-69
2023/05/25 03:23:48;;;;;;;0.10;0.10;;;12.20;99.90;;;;;;5096182;28;20030;-74
2023/05/25 03:26:14;;;;;;;0.20;0.20;;;12.10;99.90;;;;;;5096464;28;20391;-69
2023/05/25 03:28:41;;;;;;;0.10;0.10;;;12.10;99.90;;;;;;5096329;28;20025;-69
2023/05/25 03:31:07;;;;;;;0.10;0.10;;;12.20;99.90;;;;;;5096266;28;20119;-70
2023/05/25 03:33:33;;;;;;;0.10;0.10;;;12.10;99.90;;;;;;5096016;28;20024;-70
2023/05/25 03:35:59;;;;;;;0.10;0.10;;;12.20;99.90;;;;;;5096272;28;20024;-70
2023/05/25 03:38:25;;;;;;;0.10;0.10;;;12.20;99.90;;;;;;5096011;28;20016;-70
2023/05/25 03:40:51;;;;;;;0.00;0.00;;;12.20;99.90;;;;;;5078989;28;20440;-70
2023/05/25 03:43:17;;;;;;;0.03;0.03;;;12.30;99.90;;;;;;5113706;28;20491;-71
2023/05/25 03:45:46;;;;;;;0.10;0.10;;;12.40;99.90;;;;;;5095794;28;20020;-75
2023/05/25 03:48:12;;;;;;;0.10;0.10;;;12.50;99.90;;;;;;5095908;28;20499;-70
2023/05/25 03:50:39;;;;;;;0.03;0.03;;;12.50;99.90;;;;;;5114244;28;20016;-69
2023/05/25 03:53:05;;;;;;;0.15;0.15;;;12.30;99.90;;;;;;5095413;28;20034;-70
2023/05/25 03:55:31;;;;;;;0.10;0.10;;;12.20;99.90;;;;;;5114037;28;20012;-70
2023/05/25 03:57:57;;;;;;;0.10;0.10;;;12.40;99.90;;;;;;5078712;28;20031;-70
2023/05/25 04:00:22;;;;;;;0.08;0.08;;;12.50;99.90;;;;;;5113831;28;20019;-70
2023/05/25 04:02:48;;;;;;;0.10;0.10;;;12.50;99.90;;;;;;5095421;28;20047;-70
2023/05/25 04:05:14;;;;;;;0.10;0.10;;;12.70;99.90;;;;;;5113497;28;20468;-69
2023/05/25 04:07:40;;;;;;;2.17;1.88;;;12.80;99.90;;;;;;5112827;28;20107;-70
2023/05/25 04:10:06;;;;;;;1.02;0.93;;;12.80;99.90;;;;;;5113886;28;20164;-71
2023/05/25 04:12:32;;;;;;;0.10;0.10;;;12.80;99.90;;;;;;5095167;28;20551;-70
2023/05/25 04:14:58;;;;;;;0.10;0.10;;;12.70;99.90;;;;;;5095676;28;20387;-70
2023/05/25 04:17:25;;;;;;;0.20;0.20;;;12.60;99.90;;;;;;5095425;28;20023;-72
2023/05/25 04:19:51;;;;;;;0.80;0.80;;;12.60;99.90;;;;;;5095349;28;20023;-69
2023/05/25 04:22:18;;;;;;;0.00;0.00;;;12.60;99.90;;;;;;5095361;28;20020;-70
2023/05/25 04:24:45;;;;;;;0.10;0.10;;;12.60;99.90;;;;;;5095006;28;20126;-70
2023/05/25 04:27:13;;;;;;;0.10;0.10;;;12.50;99.90;;;;;;5078600;28;20084;-73
2023/05/25 04:29:40;;;;;;;1.05;1.05;;;12.40;99.90;;;;;;5095200;28;20034;-70
2023/05/25 04:32:28;;;;;;;0.10;0.10;;;12.30;99.90;;;;;;5113923;28;20127;-69
2023/05/25 04:35:14;;;;;;;3.20;1.10;;;12.30;99.90;;;;;;5095132;28;20050;-70
2023/05/25 04:37:45;;;;;;;0.10;0.10;;;12.30;99.90;;;;;;5094822;28;20030;-70
2023/05/25 04:40:12;;;;;;;0.10;0.10;;;12.30;99.90;;;;;;5094815;28;20030;-69
2023/05/25 04:42:40;;;;;;;0.10;0.10;;;12.40;99.90;;;;;;5095198;28;20039;-70
2023/05/25 04:45:10;;;;;;;0.10;0.10;;;12.40;99.90;;;;;;5078024;28;20028;-69
2023/05/25 04:47:39;;;;;;;0.00;0.00;;;12.40;99.90;;;;;;5094908;28;20059;-70
2023/05/25 04:50:08;;;;;;;0.10;0.10;;;12.60;99.90;;;;;;5077923;28;20028;-70
2023/05/25 04:52:33;;;;;;;0.08;0.08;;;12.70;99.90;;;;;;5112922;28;20468;-69
2023/05/25 04:54:59;;;;;;;0.10;0.10;;;12.80;99.90;;;;;;5094869;28;20027;-70
2023/05/25 04:57:27;;;;;;;0.35;0.35;;;12.90;99.90;;;;;;5094879;28;20386;-69
2023/05/25 04:59:53;;;;;;;0.10;0.10;;;12.80;99.90;;;;;;5113170;28;20035;-69
2023/05/25 05:02:19;;;;;;;8.30;0.50;;;12.80;99.90;;;;;;5094765;28;20088;-70
2023/05/25 05:04:45;;;;;;;0.93;0.82;;;12.90;99.90;;;;;;5077992;28;20032;-70
2023/05/25 05:07:11;;;;;;;0.10;0.10;;;12.80;99.90;;;;;;5094543;28;20114;-69
2023/05/25 05:09:37;;;;;;;0.20;0.20;;;12.90;99.90;;;;;;5094702;28;20139;-70
2023/05/25 05:12:03;;;;;;;0.10;0.10;;;13.00;99.90;;;;;;5094870;28;20032;-69
2023/05/25 05:14:34;;;;;;;0.10;0.10;;;13.10;99.90;;;;;;5094835;28;20031;-70
2023/05/25 05:17:00;;;;;;;0.30;0.30;;;13.10;99.90;;;;;;5113391;28;20813;-69
2023/05/25 05:19:27;;;;;;;0.10;0.10;;;13.30;99.90;;;;;;5116836;28;20024;-71
2023/05/25 05:21:53;;;;;;;0.10;0.10;;;13.50;99.90;;;;;;5098914;28;20588;-69
2023/05/25 05:24:19;;;;;;;0.60;0.60;;;13.70;99.90;;;;;;5098696;28;20412;-73
2023/05/25 05:26:46;;;;;;;0.10;0.10;;;13.40;99.90;;;;;;5098878;28;20491;-70
2023/05/25 05:29:12;;;;;;;0.20;0.20;;;13.40;99.90;;;;;;5098441;28;20023;-69
2023/05/25 05:31:37;;;;;;;0.08;0.08;;;13.50;99.90;;;;;;5081591;28;20027;-69
2023/05/25 05:34:03;;;;;;;0.10;0.10;;;13.70;99.90;;;;;;5098230;28;20035;-69
2023/05/25 05:36:32;;;;;;;0.10;0.10;;;13.60;99.90;;;;;;5098467;28;20027;-70
2023/05/25 05:38:58;;;;;;;0.10;0.10;;;13.70;99.90;;;;;;5081615;28;20043;-69
2023/05/25 05:41:24;;;;;;;0.35;0.35;;;13.90;99.90;;;;;;5098301;28;20088;-69
2023/05/25 05:43:50;;;;;;;0.10;0.10;;;14.00;99.90;;;;;;5098255;28;20027;-69
2023/05/25 05:46:16;;;;;;;0.10;0.10;;;14.00;99.90;;;;;;5098080;28;20032;-69
2023/05/25 05:48:42;;;;;;;0.55;0.55;;;13.90;99.90;;;;;;5097959;28;20501;-71
2023/05/25 05:51:09;;;;;;;0.28;0.28;;;14.00;99.90;;;;;;5098114;28;20080;-70
2023/05/25 05:53:34;;;;;;;0.10;0.10;;;14.40;99.90;;;;;;5098080;28;20510;-69
2023/05/25 05:56:02;;;;;;;0.10;0.10;;;14.30;99.90;;;;;;5116350;28;20035;-70
2023/05/25 05:58:28;;;;;;;0.20;0.20;;;14.10;99.90;;;;;;5098158;28;20024;-70
2023/05/25 06:00:56;;;;;;;0.00;0.00;;;14.10;99.90;;;;;;5097830;28;20016;-70
2023/05/25 06:03:22;;;;;;;0.17;0.17;;;14.20;99.90;;;;;;5097653;28;20047;-70
2023/05/25 06:05:48;;;;;;;0.10;0.10;;;14.20;99.90;;;;;;5097915;28;20479;-69
2023/05/25 06:08:15;;;;;;;0.00;0.00;;;14.10;99.90;;;;;;5098527;28;20141;-70
2023/05/25 06:10:41;;;;;;;0.10;0.10;;;14.00;99.90;;;;;;5097534;28;20111;-69
2023/05/25 06:13:07;;;;;;;0.20;0.20;;;14.30;99.90;;;;;;5097734;28;20036;-69
2023/05/25 06:15:34;;;;;;;0.60;0.47;;;14.40;99.90;;;;;;5097810;28;20028;-70
2023/05/25 06:18:02;;;;;;;0.10;0.10;;;14.40;99.90;;;;;;5097602;28;20016;-69
2023/05/25 06:20:29;;;;;;;0.00;0.00;;;14.40;99.90;;;;;;5097694;28;20496;-73
2023/05/25 06:22:55;;;;;;;0.03;0.03;;;14.40;99.90;;;;;;5097729;28;20024;-70
2023/05/25 06:25:21;;;;;;;4.95;1.35;;;14.70;99.90;;;;;;5115641;28;20028;-70
2023/05/25 06:27:47;;;;;;;0.20;0.20;;;14.70;99.90;;;;;;5097761;28;20030;-70
2023/05/25 06:30:13;;;;;;;0.10;0.10;;;14.60;99.90;;;;;;5096531;28;20020;-70
2023/05/25 06:32:39;;;;;;;0.28;0.28;;;14.60;99.90;;;;;;5097018;28;20047;-71
2023/05/25 06:35:05;;;;;;;0.10;0.10;;;14.40;99.90;;;;;;5097458;28;20424;-69
2023/05/25 06:37:36;;;;;;;0.82;0.47;;;14.50;99.90;;;;;;5097530;28;20110;-69
2023/05/25 06:40:10;;;;;;;;;;;14.70;99.90;;;;;;5097745;28;20480;-69
2023/05/25 06:42:36;;;;;;;1.00;0.47;;;14.50;99.90;;;;;;5097195;28;20013;-70
2023/05/25 06:45:04;;;;;;;0.43;0.43;;;14.40;99.90;;;;;;5097211;28;20461;-72
2023/05/25 06:47:29;;;;;;;0.00;0.00;;;14.50;99.90;;;;;;5096868;28;20394;-70
2023/05/25 06:49:56;;;;;;;0.63;0.38;;;14.70;99.90;;;;;;5096962;28;20024;-69
2023/05/25 06:52:21;;;;;;;0.80;0.80;;;14.90;99.90;;;;;;5115256;28;20410;-72
2023/05/25 06:54:47;;;;;;;0.10;0.10;;;14.70;99.90;;;;;;5115510;28;20031;-70
2023/05/25 06:57:13;;;;;;;0.10;0.10;;;14.70;99.90;;;;;;5114917;28;20015;-69
2023/05/25 06:59:38;;;;;;;0.60;0.60;;;15.10;99.90;;;;;;5115438;28;20114;-70
2023/05/25 07:02:05;;;;;;;0.20;0.20;;;15.20;99.90;;;;;;5114649;28;20028;-69
2023/05/25 07:04:31;;;;;;;0.43;0.43;;;15.40;99.90;;;;;;5115293;28;20042;-70
2023/05/25 07:06:57;;;;;;;0.13;0.13;;;15.50;99.90;;;;;;5096745;28;20020;-70
2023/05/25 07:09:23;;;;;;;1.30;0.50;;;15.40;99.90;;;;;;5096856;28;20498;-69
2023/05/25 07:11:49;;;;;;;0.00;0.00;;;15.80;99.90;;;;;;5115290;28;20443;-69
2023/05/25 07:14:16;;;;;;;0.45;0.45;;;15.80;99.90;;;;;;5114811;28;20369;-69
2023/05/25 07:16:43;;;;;;;2.80;1.02;;;15.80;99.90;;;;;;5114654;28;20076;-71
2023/05/25 07:19:10;;;;;;;0.00;0.00;;;15.80;99.90;;;;;;5114892;28;20054;-70
2023/05/25 07:21:35;;;;;;;0.10;0.10;;;15.70;99.90;;;;;;5114672;28;20011;-69
2023/05/25 07:24:05;;;;;;;1.33;1.20;;;15.60;99.90;;;;;;5114823;28;20349;-70
2023/05/25 07:26:32;;;;;;;5.90;0.65;;;15.50;99.90;;;;;;5114449;28;20035;-70
2023/05/25 07:28:58;;;;;;;2.10;0.32;;;15.50;99.90;;;;;;5114674;28;20111;-70
2023/05/25 07:31:23;;;;;;;2.85;0.73;;;15.70;99.90;;;;;;5096141;28;20083;-70
2023/05/25 07:33:49;;;;;;;0.13;0.13;;;15.80;99.90;;;;;;5114573;28;20023;-70
2023/05/25 07:36:16;;;;;;;46.47;1.95;;;16.00;99.90;;;;;;5114689;28;20030;-71
2023/05/25 07:38:42;;;;;;;1.00;0.65;;;16.00;99.90;;;;;;5095876;28;20027;-69
2023/05/25 07:41:07;;;;;;;0.00;0.00;;;16.10;99.90;;;;;;5114330;28;20034;-68
2023/05/25 07:43:33;;;;;;;0.25;0.22;;;16.20;99.90;;;;;;5095963;28;20031;-70
2023/05/25 07:46:01;;;;;;;0.10;0.10;;;16.40;99.90;;;;;;5114541;28;20015;-71
2023/05/25 07:48:27;;;;;;;1.75;1.30;;;16.40;99.90;;;;;;5114146;28;20111;-69
2023/05/25 07:50:52;;;;;;;0.10;0.10;;;16.50;99.90;;;;;;5096100;28;20531;-68
2023/05/25 07:53:18;;;;;;;0.30;0.25;;;16.40;99.90;;;;;;5113979;28;20035;-69
2023/05/25 07:55:44;;;;;;;0.30;0.30;;;16.70;99.90;;;;;;5114099;28;20116;-68
2023/05/25 07:58:10;;;;;;;0.20;0.20;;;17.10;99.90;;;;;;5113957;28;20503;-68
2023/05/25 08:00:36;;;;;;;1.40;1.33;;;17.00;99.90;;;;;;5113771;28;20020;-68
2023/05/25 08:03:01;;;;;;;0.43;0.43;;;17.00;99.90;;;;;;5114108;28;20011;-68
2023/05/25 08:05:27;;;;;;;0.68;0.68;;;17.10;99.90;;;;;;5113858;28;20032;-69
2023/05/25 08:07:53;;;;;;;0.40;0.40;;;17.20;99.90;;;;;;5113843;28;20036;-68
2023/05/25 08:10:19;;;;;;;0.32;0.32;;;17.20;99.90;;;;;;5113855;28;20031;-68
2023/05/25 08:12:45;;;;;;;0.03;0.03;;;17.00;99.90;;;;;;5113953;28;20046;-68
2023/05/25 08:15:12;;;;;;;0.95;0.95;;;17.20;99.90;;;;;;5113823;28;20036;-68
2023/05/25 08:17:38;;;;;;;0.13;0.13;;;17.60;99.90;;;;;;5113580;28;20451;-68
2023/05/25 08:20:09;;;;;;;2.28;1.08;;;17.70;99.90;;;;;;5113709;28;20102;-68
2023/05/25 08:22:34;;;;;;;0.10;0.10;;;17.90;99.90;;;;;;5095761;28;20032;-68
2023/05/25 08:25:02;;;;;;;0.00;0.00;;;18.10;99.90;;;;;;5113846;28;20031;-68
2023/05/25 08:27:28;;;;;;;0.65;0.65;;;18.30;99.90;;;;;;5113772;28;20024;-68
2023/05/25 08:29:54;;;;;;;0.50;0.47;;;18.00;99.90;;;;;;5113125;28;20027;-68
2023/05/25 08:32:19;;;;;;;0.35;0.35;;;18.10;99.90;;;;;;5113153;28;20185;-69
2023/05/25 08:34:45;;;;;;;0.28;0.03;;;17.40;99.90;;;;;;5113197;28;20032;-70
2023/05/25 08:37:11;;;;;;;0.63;0.63;;;17.60;99.90;;;;;;5113557;28;20031;-70
2023/05/25 08:39:37;;;;;;;0.00;0.00;;;17.90;99.90;;;;;;5113468;28;20114;-69
2023/05/25 08:42:04;;;;;;;0.52;0.52;;;18.20;99.90;;;;;;5113207;28;20028;-69
2023/05/25 08:44:29;;;;;;;0.30;0.30;;;18.20;99.90;;;;;;5113289;28;20038;-69
2023/05/25 08:46:56;;;;;;;0.00;0.00;;;18.40;99.90;;;;;;5113387;28;20380;-69
2023/05/25 08:49:22;;;;;;;0.70;0.70;;;18.60;99.90;;;;;;5113203;28;20036;-69
2023/05/25 08:51:52;;;;;;;0.20;0.10;;;18.20;99.80;;;;;;5112693;28;20027;-68
2023/05/25 08:54:25;;;;;;;0.20;0.20;;;18.20;99.90;;;;;;5094902;28;20044;-71
2023/05/25 08:57:19;;;;;;;0.32;0.32;;;18.20;99.90;;;;;;5113255;28;20031;-70
2023/05/25 09:00:09;;;;;;;0.00;0.00;;;18.50;99.90;;;;;;5113195;28;20038;-71
2023/05/25 09:02:58;;;;;;;0.65;0.43;;;18.70;99.90;;;;;;5113029;28;20028;-73
2023/05/25 09:05:24;;;;;;;0.03;0.03;;;18.90;99.40;;;;;;5112674;28;20039;-71
2023/05/25 09:07:53;;;;;;;4.20;1.10;;;19.20;99.10;;;;;;5113223;28;20027;-70
2023/05/25 09:10:19;;;;;;;0.00;0.00;;;19.20;98.90;;;;;;5112880;28;20019;-72
2023/05/25 09:12:45;;;;;;;0.00;0.00;;;19.10;99.10;;;;;;5112517;28;20038;-71
2023/05/25 09:15:11;;;;;;;0.00;0.00;;;19.10;98.90;;;;;;5112870;28;20394;-70
2023/05/25 09:17:38;;;;;;;0.35;0.22;;;19.00;98.60;;;;;;5112921;28;20054;-68
2023/05/25 09:20:04;;;;;;;0.00;0.00;;;18.90;98.40;;;;;;5112742;28;20107;-71
2023/05/25 09:22:30;;;;;;;0.55;0.55;;;18.80;98.70;;;;;;5112910;28;20102;-71
2023/05/25 09:24:56;;;;;;;0.00;0.00;;;18.60;98.90;;;;;;5112710;28;20107;-71
2023/05/25 09:27:22;;;;;;;0.22;0.15;;;18.40;99.10;;;;;;5112754;28;20452;-71
2023/05/25 09:29:50;;;;;;;0.08;0.08;;;18.20;99.80;;;;;;5112828;28;20028;-70
2023/05/25 09:32:16;;;;;;;0.32;0.32;;;18.20;99.90;;;;;;5112802;28;20024;-70
2023/05/25 09:34:43;;;;;;;0.00;0.00;;;18.60;99.20;;;;;;5112754;28;20028;-71
2023/05/25 09:37:15;;;;;;;0.32;0.32;;;18.70;99.20;;;;;;5112894;28;20043;-69
2023/05/25 09:39:42;;;;;;;0.00;0.00;;;18.60;99.10;;;;;;5112811;28;20042;-68
2023/05/25 09:42:11;;;;;;;0.00;0.00;;;19.00;98.70;;;;;;5112183;28;20023;-68
2023/05/25 09:44:37;;;;;;;0.00;0.00;;;19.20;98.00;;;;;;5112697;28;20035;-71
2023/05/25 09:47:04;;;;;;;0.65;0.15;;;18.90;98.10;;;;;;5112873;28;20104;-70
2023/05/25 09:49:30;;;;;;;0.10;0.10;;;19.10;98.10;;;;;;5112747;28;20035;-71
2023/05/25 09:51:55;;;;;;;0.10;0.10;;;19.30;97.60;;;;;;5094368;28;20020;-71
2023/05/25 09:54:22;;;;;;;0.13;0.13;;;19.30;97.90;;;;;;5112702;28;20031;-72
2023/05/25 09:56:47;;;;;;;0.10;0.10;;;19.10;97.70;;;;;;5094036;28;20028;-70
2023/05/25 09:59:13;;;;;;;0.00;0.00;;;19.30;97.80;;;;;;5112886;28;20031;-70
2023/05/25 10:01:39;;;;;;;0.00;0.00;;;19.80;97.80;;;;;;5112595;28;20132;-71
2023/05/25 10:04:05;;;;;;;3.95;1.02;;;19.70;96.70;;;;;;5094760;28;20031;-70
2023/05/25 10:06:32;;;;;;;0.40;0.32;;;19.30;96.90;;;;;;5116330;28;20016;-70
2023/05/25 10:09:00;;;;;;;0.40;0.40;;;19.10;97.40;;;;;;5116160;28;20042;-70
2023/05/25 10:11:26;;;;;;;0.65;0.63;;;19.30;97.20;;;;;;5115769;28;20030;-70
2023/05/25 10:13:54;;;;;;;0.43;0.10;;;19.50;97.30;;;;;;5116054;28;20491;-70
2023/05/25 10:16:25;;;;;;;0.32;0.32;;;19.80;96.60;;;;;;5116250;28;20098;-70
2023/05/25 10:19:00;;;;;;;0.38;0.38;;;19.70;96.90;;;;;;5116036;28;20039;-70
2023/05/25 10:21:28;;;;;;;0.73;0.73;;;20.10;97.20;;;;;;5115942;28;20047;-70
2023/05/25 10:24:02;;;;;;;0.15;0.15;;;20.50;96.00;;;;;;5115728;28;20487;-70
2023/05/25 10:26:34;;;;;;;1.15;1.08;;;20.20;96.10;;;;;;5115778;28;20050;-70
2023/05/25 10:29:03;;;;;;;2.30;0.22;;;20.30;96.50;;;;;;5116067;28;20490;-71
2023/05/25 10:31:32;;;;;;;0.10;0.10;;;20.20;96.30;;;;;;5115638;28;20494;-70
2023/05/25 10:33:59;;;;;;;0.00;0.00;;;20.30;96.40;;;;;;5115680;28;20043;-70
2023/05/25 10:36:26;;;;;;;0.00;0.00;;;20.50;96.40;;;;;;5115537;28;20152;-69
2023/05/25 10:38:53;;;;;;;0.15;0.15;;;20.00;96.60;;;;;;5115683;28;20383;-70
2023/05/25 10:41:19;;;;;;;0.03;0.03;;;20.00;96.80;;;;;;5115580;28;20031;-69
2023/05/25 10:43:46;;;;;;;0.08;0.08;;;19.80;96.30;;;;;;5115489;28;20377;-70
2023/05/25 10:46:13;;;;;;;2.35;0.55;;;20.60;96.50;;;;;;5115448;28;20353;-70
2023/05/25 10:48:46;;;;;;;0.00;0.00;;;20.70;96.10;;;;;;5115649;28;20352;-68
2023/05/25 10:51:13;;;;;;;0.80;0.80;;;20.90;96.30;;;;;;5115506;28;20528;-70
2023/05/25 10:53:45;;;;;;;0.00;0.00;;;20.40;96.30;;;;;;5114891;28;20067;-70
2023/05/25 10:56:13;;;;;;;0.00;0.00;;;20.40;96.00;;;;;;5115229;28;20027;-68
2023/05/25 10:58:43;;;;;;;0.22;0.22;;;20.40;96.30;;;;;;5096966;28;20453;-70
2023/05/25 11:01:13;;;;;;;1.60;0.40;;;20.60;96.60;;;;;;5114989;28;20020;-70
2023/05/25 11:04:14;;;;;;;0.03;0.03;;;20.90;96.20;;;;;;5115133;28;20050;-70
2023/05/25 11:06:40;;;;;;;0.15;0.10;;;20.20;96.20;;;;;;5115153;28;20468;-68
2023/05/25 11:09:06;;;;;;;0.35;0.35;;;19.80;97.10;;;;;;5114582;28;20023;-70
2023/05/25 11:11:40;;;;;;;0.50;0.50;;;19.60;97.10;;;;;;5115163;28;20114;-70
2023/05/25 11:14:20;;;;;;;0.00;0.00;;;19.50;97.10;;;;;;5115038;28;20122;-72
2023/05/25 11:17:09;;;;;;;0.10;0.10;;;19.80;97.40;;;;;;5114468;28;20073;-69
2023/05/25 11:19:50;;;;;;;0.80;0.43;;;19.90;97.30;;;;;;5114983;28;20020;-68
2023/05/25 11:22:30;;;;;;;0.00;0.00;;;19.80;97.00;;;;;;5114564;28;20024;-69
2023/05/25 11:24:58;;;;;;;0.38;0.38;;;19.90;97.30;;;;;;5096637;28;20157;-69
2023/05/25 11:27:27;;;;;;;0.00;0.00;;;19.90;97.50;;;;;;5114690;28;20023;-69
2023/05/25 11:29:56;;;;;;;0.17;0.17;;;20.50;97.00;;;;;;5114529;28;20031;-70
2023/05/25 11:32:23;;;;;;;0.00;0.00;;;20.70;95.80;;;;;;5114622;28;20410;-69
2023/05/25 11:34:52;;;;;;;0.00;0.00;;;20.50;95.80;;;;;;5114376;28;20375;-70
2023/05/25 11:37:20;;;;;;;0.38;0.32;;;21.20;95.70;;;;;;5114430;28;20036;-69
2023/05/25 11:39:50;;;;;;;7.05;2.08;;;21.40;95.30;;;;;;5096624;28;20028;-70
2023/05/25 11:42:18;;;;;;;0.30;0.30;;;21.80;94.80;;;;;;5114236;28;20100;-71
2023/05/25 11:44:44;;;;;;;0.00;0.00;;;21.90;94.30;;;;;;5114394;28;20026;-70
2023/05/25 11:47:17;;;;;;;0.52;0.30;;;21.40;94.60;;;;;;5114105;28;20024;-69
2023/05/25 11:49:45;;;;;;;0.32;0.32;;;21.40;94.80;;;;;;5114306;28;20034;-69
2023/05/25 11:52:19;;;;;;;4.07;0.63;;;21.40;94.80;;;;;;5113618;28;20016;-70
2023/05/25 11:54:45;;;;;;;0.10;0.05;;;21.60;94.30;;;;;;5114335;28;20050;-70
2023/05/25 11:57:23;;;;;;;0.10;0.10;;;21.90;93.60;;;;;;5113870;28;20020;-72
2023/05/25 11:59:53;;;;;;;0.15;0.15;;;21.40;94.20;;;;;;5114134;28;20028;-69
2023/05/25 12:02:20;;;;;;;0.25;0.25;;;21.50;95.20;;;;;;5113988;28;20015;-69
2023/05/25 12:04:57;;;;;;;0.90;0.85;;;21.00;95.20;;;;;;5113926;28;20051;-71
2023/05/25 12:07:25;;;;;;;1.10;1.00;;;20.60;95.10;;;;;;5113578;28;20038;-70
2023/05/25 12:09:51;;;;;;;0.00;0.00;;;20.50;95.80;;;;;;5113661;28;20024;-71
2023/05/25 12:12:18;;;;;;;0.20;0.20;;;20.40;95.80;;;;;;5095304;28;20480;-72
2023/05/25 12:14:48;;;;;;;0.10;0.10;;;20.60;95.50;;;;;;5113793;28;20036;-69
2023/05/25 12:17:14;;;;;;;0.00;0.00;;;20.70;95.20;;;;;;5113599;28;20035;-70
2023/05/25 12:19:40;;;;;;;0.10;0.10;;;20.60;95.70;;;;;;5112875;28;20023;-69
2023/05/25 12:22:06;;;;;;;0.43;0.43;;;20.90;95.40;;;;;;5113262;28;20031;-71
2023/05/25 12:24:32;;;;;;;1.15;0.52;;;20.80;94.70;;;;;;5113364;28;20023;-70
2023/05/25 12:27:00;;;;;;;10.13;1.55;;;21.00;95.10;;;;;;5112908;28;20019;-70
2023/05/25 12:29:26;;;;;;;0.00;0.00;;;21.60;94.30;;;;;;5113682;28;20027;-69
2023/05/25 12:31:52;;;;;;;0.77;0.77;;;22.30;93.30;;;;;;5113272;28;20059;-71
2023/05/25 12:34:19;;;;;;;0.10;0.10;;;22.90;92.40;;;;;;5113540;28;20065;-70
2023/05/25 12:36:50;;;;;;;0.38;0.20;;;22.80;92.60;;;;;;5113119;28;20569;-70
2023/05/25 12:39:28;;;;;;;0.73;0.73;;;23.00;92.40;;;;;;5095031;28;20027;-70
2023/05/25 12:41:56;;;;;;;0.22;0.22;;;22.80;92.40;;;;;;5112959;28;20145;-70
2023/05/25 12:44:33;;;;;;;0.30;0.25;;;22.90;93.40;;;;;;5113407;28;20034;-72
2023/05/25 12:47:27;;;;;;;0.00;0.00;;;23.70;91.70;;;;;;5113206;28;20039;-71
2023/05/25 12:50:12;;;;;;;1.55;0.77;;;24.10;91.50;;;;;;5093529;28;20044;-72
2023/05/25 12:52:43;;;;;;;2.67;1.90;;;25.10;90.50;;;;;;5113294;28;20141;-73